sensor_id;sensor_type;location;lat;lon;timestamp;pressure;altitude;pressure_sealevel;temperature;humidity
12785;BME280;6456;42.680;23.260;2023-04-03T00:00:11;93959.72;;;8.98;79.74
12785;BME280;6456;42.680;23.260;2023-04-03T00:02:44;94020.53;;;9.31;79.51
12785;BME280;6456;42.680;23.260;2023-04-03T00:05:19;93852.69;;;8.34;79.47
12785;BME280;6456;42.680;23.260;2023-04-03T00:07:57;93979.34;;;9.14;79.36
12785;BME280;6456;42.680;23.260;2023-04-03T00:10:30;93848.59;;;8.38;79.29
12785;BME280;6456;42.680;23.260;2023-04-03T00:13:22;94050.34;;;9.55;79.94
12785;BME280;6456;42.680;23.260;2023-04-03T00:15:55;94018.56;;;9.45;79.66
12785;BME280;6456;42.680;23.260;2023-04-03T00:18:28;93868.56;;;8.57;79.31
12785;BME280;6456;42.680;23.260;2023-04-03T00:21:09;93958.06;;;9.03;79.45
12785;BME280;6456;42.680;23.260;2023-04-03T00:23:44;93988.09;;;9.26;79.56
12785;BME280;6456;42.680;23.260;2023-04-03T00:26:12;93966.00;;;9.15;79.35
12785;BME280;6456;42.680;23.260;2023-04-03T00:28:43;93846.31;;;8.23;79.85
12785;BME280;6456;42.680;23.260;2023-04-03T00:31:10;93921.81;;;8.76;79.85
12785;BME280;6456;42.680;23.260;2023-04-03T00:33:41;94031.47;;;9.46;79.92
12785;BME280;6456;42.680;23.260;2023-04-03T00:36:12;93855.16;;;8.29;80.05
12785;BME280;6456;42.680;23.260;2023-04-03T00:38:45;93965.06;;;8.91;80.76
12785;BME280;6456;42.680;23.260;2023-04-03T00:41:12;93899.88;;;8.52;80.89
12785;BME280;6456;42.680;23.260;2023-04-03T00:43:41;93956.56;;;8.89;81.14
12785;BME280;6456;42.680;23.260;2023-04-03T00:46:08;93987.41;;;9.12;81.17
12785;BME280;6456;42.680;23.260;2023-04-03T00:48:38;93972.00;;;9.04;81.07
12785;BME280;6456;42.680;23.260;2023-04-03T00:51:09;93961.81;;;8.89;80.90
12785;BME280;6456;42.680;23.260;2023-04-03T00:53:40;93969.84;;;8.94;81.11
12785;BME280;6456;42.680;23.260;2023-04-03T00:56:27;93970.94;;;8.87;81.36
12785;BME280;6456;42.680;23.260;2023-04-03T00:59:00;93913.91;;;8.39;81.50
12785;BME280;6456;42.680;23.260;2023-04-03T01:01:30;94059.97;;;9.25;81.83
12785;BME280;6456;42.680;23.260;2023-04-03T01:04:02;93935.56;;;8.53;81.85
12785;BME280;6456;42.680;23.260;2023-04-03T01:06:33;94057.19;;;9.20;82.10
12785;BME280;6456;42.680;23.260;2023-04-03T01:09:01;93896.75;;;8.19;82.04
12785;BME280;6456;42.680;23.260;2023-04-03T01:11:28;93913.22;;;8.26;81.96
12785;BME280;6456;42.680;23.260;2023-04-03T01:13:57;93868.53;;;7.96;82.51
12785;BME280;6456;42.680;23.260;2023-04-03T01:16:27;93878.13;;;8.02;82.95
12785;BME280;6456;42.680;23.260;2023-04-03T01:18:56;93842.69;;;7.75;83.26
12785;BME280;6456;42.680;23.260;2023-04-03T01:22:02;94038.81;;;9.01;83.68
12785;BME280;6456;42.680;23.260;2023-04-03T01:24:34;93934.19;;;8.26;83.91
12785;BME280;6456;42.680;23.260;2023-04-03T01:27:06;94039.25;;;8.98;83.94
12785;BME280;6456;42.680;23.260;2023-04-03T01:29:36;93922.94;;;8.19;83.89
12785;BME280;6456;42.680;23.260;2023-04-03T01:32:05;93885.25;;;7.95;84.08
12785;BME280;6456;42.680;23.260;2023-04-03T01:34:34;93980.41;;;8.45;85.69
12785;BME280;6456;42.680;23.260;2023-04-03T01:37:01;94044.47;;;8.80;85.91
12785;BME280;6456;42.680;23.260;2023-04-03T01:39:28;93890.66;;;7.75;85.83
12785;BME280;6456;42.680;23.260;2023-04-03T01:41:54;94041.94;;;8.67;86.61
12785;BME280;6456;42.680;23.260;2023-04-03T01:44:21;94029.38;;;8.51;87.11
12785;BME280;6456;42.680;23.260;2023-04-03T01:46:48;94035.38;;;8.58;87.58
12785;BME280;6456;42.680;23.260;2023-04-03T01:49:17;93954.53;;;7.99;88.06
12785;BME280;6456;42.680;23.260;2023-04-03T01:51:44;93973.47;;;8.01;88.39
12785;BME280;6456;42.680;23.260;2023-04-03T01:54:11;94030.94;;;8.34;88.94
12785;BME280;6456;42.680;23.260;2023-04-03T01:56:38;94000.78;;;8.12;89.51
12785;BME280;6456;42.680;23.260;2023-04-03T01:59:05;94033.56;;;8.34;89.22
12785;BME280;6456;42.680;23.260;2023-04-03T02:01:32;93913.94;;;7.52;88.98
12785;BME280;6456;42.680;23.260;2023-04-03T02:03:59;93920.50;;;7.68;88.65
12785;BME280;6456;42.680;23.260;2023-04-03T02:06:27;93997.59;;;8.10;88.32
12785;BME280;6456;42.680;23.260;2023-04-03T02:08:55;93978.31;;;7.98;88.50
12785;BME280;6456;42.680;23.260;2023-04-03T02:11:22;93939.22;;;7.71;88.10
12785;BME280;6456;42.680;23.260;2023-04-03T02:13:49;93909.34;;;7.48;87.76
12785;BME280;6456;42.680;23.260;2023-04-03T02:16:16;94056.31;;;8.33;88.19
12785;BME280;6456;42.680;23.260;2023-04-03T02:18:43;93911.38;;;7.46;88.18
12785;BME280;6456;42.680;23.260;2023-04-03T02:21:10;93871.47;;;7.19;88.46
12785;BME280;6456;42.680;23.260;2023-04-03T02:23:38;93863.66;;;7.13;89.18
12785;BME280;6456;42.680;23.260;2023-04-03T02:26:08;93849.41;;;7.08;89.53
12785;BME280;6456;42.680;23.260;2023-04-03T02:28:36;93898.19;;;7.28;90.46
12785;BME280;6456;42.680;23.260;2023-04-03T02:31:03;93872.50;;;7.11;90.68
12785;BME280;6456;42.680;23.260;2023-04-03T02:33:31;93953.78;;;7.61;90.98
12785;BME280;6456;42.680;23.260;2023-04-03T02:35:58;93876.63;;;6.94;92.06
12785;BME280;6456;42.680;23.260;2023-04-03T02:38:25;93950.44;;;7.47;92.45
12785;BME280;6456;42.680;23.260;2023-04-03T02:40:59;94020.34;;;7.78;93.21
12785;BME280;6456;42.680;23.260;2023-04-03T02:43:26;94008.72;;;7.74;93.97
12785;BME280;6456;42.680;23.260;2023-04-03T02:45:53;93933.59;;;7.30;93.63
12785;BME280;6456;42.680;23.260;2023-04-03T02:48:20;94007.50;;;7.70;93.98
12785;BME280;6456;42.680;23.260;2023-04-03T02:50:47;94011.97;;;7.63;94.76
12785;BME280;6456;42.680;23.260;2023-04-03T02:53:14;93931.25;;;7.16;94.76
12785;BME280;6456;42.680;23.260;2023-04-03T02:55:41;93999.09;;;7.61;94.72
12785;BME280;6456;42.680;23.260;2023-04-03T02:58:12;94010.16;;;7.63;94.95
12785;BME280;6456;42.680;23.260;2023-04-03T03:00:39;93887.16;;;6.75;95.27
12785;BME280;6456;42.680;23.260;2023-04-03T03:03:06;94002.16;;;7.52;95.82
12785;BME280;6456;42.680;23.260;2023-04-03T03:05:33;93953.19;;;7.15;96.11
12785;BME280;6456;42.680;23.260;2023-04-03T03:08:00;93859.84;;;6.64;95.98
12785;BME280;6456;42.680;23.260;2023-04-03T03:10:27;94000.19;;;7.41;95.98
12785;BME280;6456;42.680;23.260;2023-04-03T03:12:54;93918.81;;;7.04;95.59
12785;BME280;6456;42.680;23.260;2023-04-03T03:15:22;93897.81;;;6.80;95.96
12785;BME280;6456;42.680;23.260;2023-04-03T03:17:49;93989.31;;;7.37;96.51
12785;BME280;6456;42.680;23.260;2023-04-03T03:20:16;93881.16;;;6.68;96.77
12785;BME280;6456;42.680;23.260;2023-04-03T03:22:43;93875.97;;;6.55;96.79
12785;BME280;6456;42.680;23.260;2023-04-03T03:25:10;93938.53;;;7.07;97.76
12785;BME280;6456;42.680;23.260;2023-04-03T03:27:37;94016.09;;;7.46;97.67
12785;BME280;6456;42.680;23.260;2023-04-03T03:30:05;93960.00;;;7.22;96.96
12785;BME280;6456;42.680;23.260;2023-04-03T03:32:34;93971.91;;;7.18;97.55
12785;BME280;6456;42.680;23.260;2023-04-03T03:35:01;93914.44;;;6.92;97.74
12785;BME280;6456;42.680;23.260;2023-04-03T03:37:28;93902.84;;;6.75;97.64
12785;BME280;6456;42.680;23.260;2023-04-03T03:39:55;93944.59;;;7.01;97.36
12785;BME280;6456;42.680;23.260;2023-04-03T03:42:22;94005.97;;;7.49;97.35
12785;BME280;6456;42.680;23.260;2023-04-03T03:44:49;93991.53;;;7.40;97.93
12785;BME280;6456;42.680;23.260;2023-04-03T03:47:17;93966.00;;;7.29;97.97
12785;BME280;6456;42.680;23.260;2023-04-03T03:49:45;93896.56;;;6.89;98.05
12785;BME280;6456;42.680;23.260;2023-04-03T03:52:12;93951.59;;;7.14;97.46
12785;BME280;6456;42.680;23.260;2023-04-03T03:54:39;93908.44;;;6.85;97.12
12785;BME280;6456;42.680;23.260;2023-04-03T03:57:05;94012.06;;;7.43;97.01
12785;BME280;6456;42.680;23.260;2023-04-03T03:59:32;93990.81;;;7.20;97.20
12785;BME280;6456;42.680;23.260;2023-04-03T04:01:59;94009.25;;;7.38;97.65
12785;BME280;6456;42.680;23.260;2023-04-03T04:04:29;94015.09;;;7.40;98.40
12785;BME280;6456;42.680;23.260;2023-04-03T04:06:58;93842.66;;;6.43;98.16
12785;BME280;6456;42.680;23.260;2023-04-03T04:09:25;93975.50;;;7.24;98.44
12785;BME280;6456;42.680;23.260;2023-04-03T04:11:52;93965.91;;;7.11;98.25
12785;BME280;6456;42.680;23.260;2023-04-03T04:14:19;93941.44;;;6.86;98.17
12785;BME280;6456;42.680;23.260;2023-04-03T04:16:47;94015.31;;;7.39;98.02
12785;BME280;6456;42.680;23.260;2023-04-03T04:19:14;93944.47;;;6.83;98.24
12785;BME280;6456;42.680;23.260;2023-04-03T04:21:41;94029.34;;;7.44;97.73
12785;BME280;6456;42.680;23.260;2023-04-03T04:24:09;94034.19;;;7.47;97.21
12785;BME280;6456;42.680;23.260;2023-04-03T04:26:36;94015.91;;;7.41;97.08
12785;BME280;6456;42.680;23.260;2023-04-03T04:29:03;94026.50;;;7.52;97.03
12785;BME280;6456;42.680;23.260;2023-04-03T04:31:30;94023.50;;;7.55;97.25
12785;BME280;6456;42.680;23.260;2023-04-03T04:33:57;94022.03;;;7.59;96.83
12785;BME280;6456;42.680;23.260;2023-04-03T04:36:23;94004.41;;;7.48;96.39
12785;BME280;6456;42.680;23.260;2023-04-03T04:38:50;93995.78;;;7.41;96.26
12785;BME280;6456;42.680;23.260;2023-04-03T04:41:19;94018.47;;;7.54;96.23
12785;BME280;6456;42.680;23.260;2023-04-03T04:43:48;93977.50;;;7.28;95.95
12785;BME280;6456;42.680;23.260;2023-04-03T04:46:15;94015.03;;;7.53;95.48
12785;BME280;6456;42.680;23.260;2023-04-03T04:48:42;94038.69;;;7.78;95.50
12785;BME280;6456;42.680;23.260;2023-04-03T04:51:09;93989.88;;;7.52;95.90
12785;BME280;6456;42.680;23.260;2023-04-03T04:53:36;94050.94;;;7.84;95.89
12785;BME280;6456;42.680;23.260;2023-04-03T04:56:03;94044.28;;;7.88;96.04
12785;BME280;6456;42.680;23.260;2023-04-03T04:58:32;93987.84;;;7.54;95.56
12785;BME280;6456;42.680;23.260;2023-04-03T05:00:59;94052.47;;;7.98;95.64
12785;BME280;6456;42.680;23.260;2023-04-03T05:03:26;93974.56;;;7.49;95.27
12785;BME280;6456;42.680;23.260;2023-04-03T05:05:53;94038.00;;;7.96;95.05
12785;BME280;6456;42.680;23.260;2023-04-03T05:08:20;94061.22;;;8.17;94.65
12785;BME280;6456;42.680;23.260;2023-04-03T05:10:47;94031.09;;;8.01;94.03
12785;BME280;6456;42.680;23.260;2023-04-03T05:13:14;94044.91;;;8.15;93.29
12785;BME280;6456;42.680;23.260;2023-04-03T05:15:43;94071.25;;;8.33;93.06
12785;BME280;6456;42.680;23.260;2023-04-03T05:18:09;94055.94;;;8.30;92.78
12785;BME280;6456;42.680;23.260;2023-04-03T05:20:36;94073.63;;;8.41;91.97
12785;BME280;6456;42.680;23.260;2023-04-03T05:23:03;93999.94;;;7.87;91.89
12785;BME280;6456;42.680;23.260;2023-04-03T05:25:30;94076.09;;;8.29;92.57
12785;BME280;6456;42.680;23.260;2023-04-03T05:27:57;94077.81;;;8.11;93.62
12785;BME280;6456;42.680;23.260;2023-04-03T05:30:24;94070.94;;;8.10;94.31
12785;BME280;6456;42.680;23.260;2023-04-03T05:32:53;94074.78;;;8.14;94.67
12785;BME280;6456;42.680;23.260;2023-04-03T05:35:20;94050.63;;;8.05;93.91
12785;BME280;6456;42.680;23.260;2023-04-03T05:37:46;94074.88;;;8.32;93.42
12785;BME280;6456;42.680;23.260;2023-04-03T05:40:13;94067.63;;;8.34;93.07
12785;BME280;6456;42.680;23.260;2023-04-03T05:42:40;94078.88;;;8.41;92.37
12785;BME280;6456;42.680;23.260;2023-04-03T05:45:07;94083.78;;;8.31;92.59
12785;BME280;6456;42.680;23.260;2023-04-03T05:47:34;94079.75;;;8.22;92.78
12785;BME280;6456;42.680;23.260;2023-04-03T05:50:03;94037.19;;;7.95;93.55
12785;BME280;6456;42.680;23.260;2023-04-03T05:52:33;93994.56;;;7.75;94.11
12785;BME280;6456;42.680;23.260;2023-04-03T05:55:00;93954.84;;;7.53;93.85
12785;BME280;6456;42.680;23.260;2023-04-03T05:57:27;94054.75;;;8.26;94.35
12785;BME280;6456;42.680;23.260;2023-04-03T05:59:54;94013.38;;;7.97;93.80
12785;BME280;6456;42.680;23.260;2023-04-03T06:02:23;94049.50;;;8.26;93.28
12785;BME280;6456;42.680;23.260;2023-04-03T06:04:51;94071.19;;;8.39;93.71
12785;BME280;6456;42.680;23.260;2023-04-03T06:07:21;93986.41;;;7.96;92.82
12785;BME280;6456;42.680;23.260;2023-04-03T06:09:49;94066.13;;;8.69;93.02
12785;BME280;6456;42.680;23.260;2023-04-03T06:12:16;94039.22;;;8.80;92.90
12785;BME280;6456;42.680;23.260;2023-04-03T06:14:43;93962.72;;;8.41;90.69
12785;BME280;6456;42.680;23.260;2023-04-03T06:17:10;94014.13;;;8.84;92.05
12785;BME280;6456;42.680;23.260;2023-04-03T06:19:37;94042.75;;;9.11;90.57
12785;BME280;6456;42.680;23.260;2023-04-03T06:22:04;94039.72;;;9.14;88.97
12785;BME280;6456;42.680;23.260;2023-04-03T06:24:33;93956.84;;;8.63;87.65
12785;BME280;6456;42.680;23.260;2023-04-03T06:27:00;93977.25;;;8.79;87.55
12785;BME280;6456;42.680;23.260;2023-04-03T06:29:28;94059.78;;;9.44;86.58
12785;BME280;6456;42.680;23.260;2023-04-03T06:31:55;94017.09;;;9.31;85.37
12785;BME280;6456;42.680;23.260;2023-04-03T06:34:21;93977.38;;;9.09;85.62
12785;BME280;6456;42.680;23.260;2023-04-03T06:36:48;93948.56;;;9.02;85.43
12785;BME280;6456;42.680;23.260;2023-04-03T06:39:18;93979.97;;;9.27;84.15
12785;BME280;6456;42.680;23.260;2023-04-03T06:41:47;94017.81;;;9.56;83.43
12785;BME280;6456;42.680;23.260;2023-04-03T06:44:14;93990.34;;;9.40;84.60
12785;BME280;6456;42.680;23.260;2023-04-03T06:46:42;94072.88;;;9.99;84.84
12785;BME280;6456;42.680;23.260;2023-04-03T06:49:09;94049.56;;;10.02;83.05
12785;BME280;6456;42.680;23.260;2023-04-03T06:51:36;94013.06;;;9.64;83.90
12785;BME280;6456;42.680;23.260;2023-04-03T06:54:05;94063.31;;;9.86;84.32
12785;BME280;6456;42.680;23.260;2023-04-03T06:56:33;94015.25;;;9.49;84.96
12785;BME280;6456;42.680;23.260;2023-04-03T06:59:02;94050.63;;;9.83;84.59
12785;BME280;6456;42.680;23.260;2023-04-03T07:01:29;94068.47;;;10.11;84.37
12785;BME280;6456;42.680;23.260;2023-04-03T07:03:56;94072.66;;;10.30;82.87
12785;BME280;6456;42.680;23.260;2023-04-03T07:06:23;94075.94;;;10.44;81.82
12785;BME280;6456;42.680;23.260;2023-04-03T07:08:52;94069.44;;;10.58;81.40
12785;BME280;6456;42.680;23.260;2023-04-03T07:11:19;93956.88;;;9.95;79.63
12785;BME280;6456;42.680;23.260;2023-04-03T07:13:46;93945.16;;;10.09;78.67
12785;BME280;6456;42.680;23.260;2023-04-03T07:16:15;94037.66;;;10.82;78.79
12785;BME280;6456;42.680;23.260;2023-04-03T07:18:42;93978.97;;;10.59;77.52
12785;BME280;6456;42.680;23.260;2023-04-03T07:21:08;93996.94;;;10.73;76.80
12785;BME280;6456;42.680;23.260;2023-04-03T07:23:35;94061.59;;;11.27;76.97
12785;BME280;6456;42.680;23.260;2023-04-03T07:26:02;93970.41;;;10.86;75.89
12785;BME280;6456;42.680;23.260;2023-04-03T07:28:30;94017.19;;;11.19;75.85
12785;BME280;6456;42.680;23.260;2023-04-03T07:31:00;93961.59;;;11.04;74.68
12785;BME280;6456;42.680;23.260;2023-04-03T07:33:29;93945.31;;;11.07;74.54
12785;BME280;6456;42.680;23.260;2023-04-03T07:35:56;94058.03;;;11.80;73.18
12785;BME280;6456;42.680;23.260;2023-04-03T07:38:23;94047.91;;;11.65;73.16
12785;BME280;6456;42.680;23.260;2023-04-03T07:40:51;94041.06;;;11.76;73.96
12785;BME280;6456;42.680;23.260;2023-04-03T07:43:20;94019.25;;;11.80;73.43
12785;BME280;6456;42.680;23.260;2023-04-03T07:45:48;94028.06;;;11.86;72.44
12785;BME280;6456;42.680;23.260;2023-04-03T07:48:16;94029.72;;;11.64;72.11
12785;BME280;6456;42.680;23.260;2023-04-03T07:50:45;93954.09;;;11.24;72.10
12785;BME280;6456;42.680;23.260;2023-04-03T07:53:12;94015.84;;;11.80;72.52
12785;BME280;6456;42.680;23.260;2023-04-03T07:55:39;94019.94;;;11.87;73.08
12785;BME280;6456;42.680;23.260;2023-04-03T07:58:09;93953.41;;;11.29;72.67
12785;BME280;6456;42.680;23.260;2023-04-03T08:00:36;94019.53;;;11.67;72.90
12785;BME280;6456;42.680;23.260;2023-04-03T08:03:03;94014.59;;;11.71;72.72
12785;BME280;6456;42.680;23.260;2023-04-03T08:05:31;94003.78;;;11.84;71.84
12785;BME280;6456;42.680;23.260;2023-04-03T08:07:59;94008.59;;;11.87;71.62
12785;BME280;6456;42.680;23.260;2023-04-03T08:10:26;93961.06;;;11.82;71.66
12785;BME280;6456;42.680;23.260;2023-04-03T08:12:53;94007.00;;;12.31;71.10
12785;BME280;6456;42.680;23.260;2023-04-03T08:15:20;94002.06;;;12.34;70.68
12785;BME280;6456;42.680;23.260;2023-04-03T08:17:47;93950.97;;;12.07;70.17
12785;BME280;6456;42.680;23.260;2023-04-03T08:20:14;94005.88;;;12.55;70.24
12785;BME280;6456;42.680;23.260;2023-04-03T08:22:41;94015.63;;;12.71;70.02
12785;BME280;6456;42.680;23.260;2023-04-03T08:25:09;93933.72;;;12.49;69.32
12785;BME280;6456;42.680;23.260;2023-04-03T08:27:36;93934.59;;;12.71;68.54
12785;BME280;6456;42.680;23.260;2023-04-03T08:30:04;94002.94;;;13.23;66.94
12785;BME280;6456;42.680;23.260;2023-04-03T08:32:33;93991.09;;;13.25;66.46
12785;BME280;6456;42.680;23.260;2023-04-03T08:35:00;94000.09;;;13.46;65.88
12785;BME280;6456;42.680;23.260;2023-04-03T08:37:27;93993.59;;;13.54;65.14
12785;BME280;6456;42.680;23.260;2023-04-03T08:39:54;93898.34;;;13.05;64.75
12785;BME280;6456;42.680;23.260;2023-04-03T08:42:36;93982.16;;;13.70;64.75
12785;BME280;6456;42.680;23.260;2023-04-03T08:45:12;93897.16;;;13.13;64.48
12785;BME280;6456;42.680;23.260;2023-04-03T08:47:44;93978.91;;;13.84;64.12
12785;BME280;6456;42.680;23.260;2023-04-03T08:50:15;93974.69;;;13.88;63.57
12785;BME280;6456;42.680;23.260;2023-04-03T08:52:46;93978.53;;;13.97;63.00
12785;BME280;6456;42.680;23.260;2023-04-03T08:55:22;93974.81;;;13.98;61.27
12785;BME280;6456;42.680;23.260;2023-04-03T08:57:53;93872.09;;;13.37;60.79
12785;BME280;6456;42.680;23.260;2023-04-03T09:00:24;93968.03;;;14.07;61.00
12785;BME280;6456;42.680;23.260;2023-04-03T09:02:55;93906.97;;;13.82;61.74
12785;BME280;6456;42.680;23.260;2023-04-03T09:05:32;93948.03;;;13.90;59.89
12785;BME280;6456;42.680;23.260;2023-04-03T09:08:09;93937.19;;;13.91;60.35
12785;BME280;6456;42.680;23.260;2023-04-03T09:10:39;93883.53;;;13.69;59.69
12785;BME280;6456;42.680;23.260;2023-04-03T09:13:11;93913.94;;;13.93;59.27
12785;BME280;6456;42.680;23.260;2023-04-03T09:15:40;93950.16;;;14.20;60.60
12785;BME280;6456;42.680;23.260;2023-04-03T09:18:13;93917.97;;;14.01;59.95
12785;BME280;6456;42.680;23.260;2023-04-03T09:20:46;93867.31;;;13.61;60.81
12785;BME280;6456;42.680;23.260;2023-04-03T09:23:18;93918.03;;;13.79;59.93
12785;BME280;6456;42.680;23.260;2023-04-03T09:25:47;93931.41;;;13.94;60.83
12785;BME280;6456;42.680;23.260;2023-04-03T09:28:16;93937.28;;;14.01;61.67
12785;BME280;6456;42.680;23.260;2023-04-03T09:30:43;93932.81;;;14.02;60.77
12785;BME280;6456;42.680;23.260;2023-04-03T09:33:11;93927.16;;;13.93;60.94
12785;BME280;6456;42.680;23.260;2023-04-03T09:35:40;93928.38;;;13.86;60.16
12785;BME280;6456;42.680;23.260;2023-04-03T09:38:18;93922.16;;;13.97;60.34
12785;BME280;6456;42.680;23.260;2023-04-03T09:40:47;93890.78;;;13.79;60.24
12785;BME280;6456;42.680;23.260;2023-04-03T09:43:38;93917.63;;;13.92;59.66
12785;BME280;6456;42.680;23.260;2023-04-03T09:46:29;93915.31;;;14.01;61.27
12785;BME280;6456;42.680;23.260;2023-04-03T09:48:59;93915.13;;;14.07;59.79
12785;BME280;6456;42.680;23.260;2023-04-03T09:51:27;93909.94;;;14.18;59.12
12785;BME280;6456;42.680;23.260;2023-04-03T09:53:55;93811.88;;;13.39;59.66
12785;BME280;6456;42.680;23.260;2023-04-03T09:56:25;93903.94;;;14.00;58.69
12785;BME280;6456;42.680;23.260;2023-04-03T09:59:08;93856.25;;;13.64;58.31
12785;BME280;6456;42.680;23.260;2023-04-03T10:01:42;93893.25;;;13.90;59.05
12785;BME280;6456;42.680;23.260;2023-04-03T10:04:12;93896.47;;;13.92;59.08
12785;BME280;6456;42.680;23.260;2023-04-03T10:06:41;93896.09;;;14.10;58.45
12785;BME280;6456;42.680;23.260;2023-04-03T10:09:20;93826.66;;;13.93;58.89
12785;BME280;6456;42.680;23.260;2023-04-03T10:11:59;93882.50;;;14.55;58.43
12785;BME280;6456;42.680;23.260;2023-04-03T10:14:29;93894.75;;;14.71;56.91
12785;BME280;6456;42.680;23.260;2023-04-03T10:17:01;93756.25;;;13.82;55.92
12785;BME280;6456;42.680;23.260;2023-04-03T10:19:36;93876.94;;;14.57;55.47
12785;BME280;6456;42.680;23.260;2023-04-03T10:22:14;93847.94;;;14.35;55.96
12785;BME280;6456;42.680;23.260;2023-04-03T10:24:52;93851.88;;;14.33;56.27
12785;BME280;6456;42.680;23.260;2023-04-03T10:27:28;93876.03;;;14.46;56.74
12785;BME280;6456;42.680;23.260;2023-04-03T10:30:06;93864.59;;;14.36;56.32
12785;BME280;6456;42.680;23.260;2023-04-03T10:32:52;93865.78;;;14.23;57.12
12785;BME280;6456;42.680;23.260;2023-04-03T10:35:33;93834.03;;;14.23;57.19
12785;BME280;6456;42.680;23.260;2023-04-03T10:38:09;93865.75;;;14.50;56.08
12785;BME280;6456;42.680;23.260;2023-04-03T10:40:47;93859.16;;;14.52;55.81
12785;BME280;6456;42.680;23.260;2023-04-03T10:43:19;93857.28;;;14.48;55.70
12785;BME280;6456;42.680;23.260;2023-04-03T10:45:55;93800.47;;;14.29;55.53
12785;BME280;6456;42.680;23.260;2023-04-03T10:48:34;93853.13;;;14.62;55.66
12785;BME280;6456;42.680;23.260;2023-04-03T10:51:12;93832.44;;;14.54;55.63
12785;BME280;6456;42.680;23.260;2023-04-03T10:53:47;93851.00;;;14.59;55.37
12785;BME280;6456;42.680;23.260;2023-04-03T10:56:19;93749.59;;;13.80;56.11
12785;BME280;6456;42.680;23.260;2023-04-03T10:58:52;93755.25;;;13.93;56.43
12785;BME280;6456;42.680;23.260;2023-04-03T11:01:28;93788.31;;;14.28;56.41
12785;BME280;6456;42.680;23.260;2023-04-03T11:03:59;93844.59;;;14.50;56.42
12785;BME280;6456;42.680;23.260;2023-04-03T11:06:40;93858.81;;;14.44;57.33
12785;BME280;6456;42.680;23.260;2023-04-03T11:09:18;93823.75;;;14.27;58.08
12785;BME280;6456;42.680;23.260;2023-04-03T11:11:47;93831.88;;;14.15;58.42
12785;BME280;6456;42.680;23.260;2023-04-03T11:14:20;93840.88;;;14.19;59.93
12785;BME280;6456;42.680;23.260;2023-04-03T11:16:53;93819.81;;;13.97;61.64
12785;BME280;6456;42.680;23.260;2023-04-03T11:19:35;93853.03;;;14.15;63.70
12785;BME280;6456;42.680;23.260;2023-04-03T11:22:12;93806.75;;;13.86;65.69
12785;BME280;6456;42.680;23.260;2023-04-03T11:24:47;93759.63;;;13.46;65.68
12785;BME280;6456;42.680;23.260;2023-04-03T11:27:22;93854.53;;;14.06;68.36
12785;BME280;6456;42.680;23.260;2023-04-03T11:29:51;93862.69;;;13.99;69.36
12785;BME280;6456;42.680;23.260;2023-04-03T11:32:48;93835.00;;;13.80;71.50
12785;BME280;6456;42.680;23.260;2023-04-03T11:35:21;93862.84;;;13.61;72.71
12785;BME280;6456;42.680;23.260;2023-04-03T11:37:51;93846.78;;;13.41;75.70
12785;BME280;6456;42.680;23.260;2023-04-03T11:40:22;93790.03;;;12.78;78.13
12785;BME280;6456;42.680;23.260;2023-04-03T11:42:53;93847.84;;;13.18;80.88
12785;BME280;6456;42.680;23.260;2023-04-03T11:45:31;93821.13;;;13.15;82.22
12785;BME280;6456;42.680;23.260;2023-04-03T11:48:03;93819.72;;;13.07;83.36
12785;BME280;6456;42.680;23.260;2023-04-03T11:50:41;93798.78;;;13.06;83.90
12785;BME280;6456;42.680;23.260;2023-04-03T11:53:29;93861.66;;;13.47;86.81
12785;BME280;6456;42.680;23.260;2023-04-03T11:56:04;93869.31;;;13.48;88.34
12785;BME280;6456;42.680;23.260;2023-04-03T11:58:32;93841.97;;;13.38;88.19
12785;BME280;6456;42.680;23.260;2023-04-03T12:01:05;93792.97;;;13.04;88.17
12785;BME280;6456;42.680;23.260;2023-04-03T12:09:56;93864.47;;;12.97;89.32
12785;BME280;6456;42.680;23.260;2023-04-03T12:12:31;93820.19;;;12.44;92.15
12785;BME280;6456;42.680;23.260;2023-04-03T12:15:23;93862.72;;;12.64;94.95
12785;BME280;6456;42.680;23.260;2023-04-03T12:17:50;93837.13;;;12.48;97.48
12785;BME280;6456;42.680;23.260;2023-04-03T12:20:53;93853.91;;;12.59;100.00
12785;BME280;6456;42.680;23.260;2023-04-03T12:23:31;93850.41;;;12.53;100.00
12785;BME280;6456;42.680;23.260;2023-04-03T12:26:08;93825.16;;;12.41;100.00
12785;BME280;6456;42.680;23.260;2023-04-03T12:28:48;93821.63;;;12.35;100.00
12785;BME280;6456;42.680;23.260;2023-04-03T12:31:23;93772.72;;;11.89;100.00
12785;BME280;6456;42.680;23.260;2023-04-03T12:34:04;93669.44;;;11.42;100.00
12785;BME280;6456;42.680;23.260;2023-04-03T12:36:45;93819.09;;;12.23;100.00
12785;BME280;6456;42.680;23.260;2023-04-03T12:39:32;93762.75;;;11.75;100.00
12785;BME280;6456;42.680;23.260;2023-04-03T12:42:15;93802.69;;;12.00;100.00
12785;BME280;6456;42.680;23.260;2023-04-03T12:44:52;93825.06;;;11.97;100.00
12785;BME280;6456;42.680;23.260;2023-04-03T12:47:28;93756.34;;;11.26;100.00
12785;BME280;6456;42.680;23.260;2023-04-03T12:50:02;93742.75;;;11.01;100.00
12785;BME280;6456;42.680;23.260;2023-04-03T12:52:37;93801.88;;;11.38;100.00
12785;BME280;6456;42.680;23.260;2023-04-03T12:55:15;93711.88;;;10.68;100.00
12785;BME280;6456;42.680;23.260;2023-04-03T12:57:47;93743.28;;;10.86;100.00
12785;BME280;6456;42.680;23.260;2023-04-03T13:00:35;93796.25;;;10.89;100.00
12785;BME280;6456;42.680;23.260;2023-04-03T13:03:21;93691.69;;;10.17;100.00
12785;BME280;6456;42.680;23.260;2023-04-03T13:05:50;93812.31;;;10.76;100.00
12785;BME280;6456;42.680;23.260;2023-04-03T13:08:17;93809.22;;;10.68;100.00
12785;BME280;6456;42.680;23.260;2023-04-03T13:10:56;93711.56;;;10.01;100.00
12785;BME280;6456;42.680;23.260;2023-04-03T13:13:31;93690.34;;;9.91;100.00
12785;BME280;6456;42.680;23.260;2023-04-03T13:15:58;93666.47;;;9.69;100.00
12785;BME280;6456;42.680;23.260;2023-04-03T13:18:36;93769.63;;;10.23;100.00
12785;BME280;6456;42.680;23.260;2023-04-03T13:21:05;93760.34;;;10.09;100.00
12785;BME280;6456;42.680;23.260;2023-04-03T13:23:36;93748.56;;;10.00;100.00
12785;BME280;6456;42.680;23.260;2023-04-03T13:26:06;93712.84;;;9.76;100.00
12785;BME280;6456;42.680;23.260;2023-04-03T13:28:35;93788.97;;;10.17;100.00